Impacts TAF Board
For situational awareness. Not to be used for flight planning purposes.
IDs:

KMIA - Miami Intl, FL, US

Issued at 2058 UTC 18 Nov 2018
Updated at 2223 UTC 18 Nov 2018
Potential Impact None Slight Moderate High
Time2153Z 18/23Z 19/00Z 19/01Z 19/02Z 19/03Z 19/04Z 19/05Z 19/06Z 19/07Z 19/08Z 19/09Z 19/10Z 19/11Z>>
Type OBS PRVL PRVL PRVL PRVL PRVL PRVL PRVL PRVL PRVL PRVL PRVL PRVL PRVL
VIS 10 >6 >6 >6 >6 >6 >6 >6 >6 >6 >6 >6 >6 >6
CIG 70 70 60 60 60 60 60 60 60 60 60 60 60 60
Cover BKN BKN BKN BKN BKN BKN BKN BKN BKN BKN BKN BKN BKN BKN
FltCat VFR VFR VFR VFR VFR VFR VFR VFR VFR VFR VFR VFR VFR VFR
WX -- -- -- -- -- -- -- -- -- -- -- -- -- --
WDir 100 90 70 70 70 70 VRB VRB VRB VRB VRB VRB VRB VRB
WSpd 10 9 6 6 6 6 4 4 4 4 4 4 4 4
WGst -- -- -- -- -- -- -- -- -- -- -- -- -- --
Raw TAF
KMIA 182058Z 1821/1924 09009KT P6SM SCT030 BKN070
  FM190000 07006KT P6SM FEW027 SCT035 BKN060
  FM190400 VRB04KT P6SM FEW040 SCT050 BKN060
  FM191400 09006KT P6SM SCT030 BKN060


Raw METAR
KMIA 182153Z 10010KT 10SM FEW038 BKN070 BKN250 26/19 A3006 RMK AO2 SLP179 T02560194
KMIA 182053Z 10008KT 10SM FEW035 SCT075 SCT250 26/19 A3005 RMK AO2 SLP175 T02610189 56011
KMIA 181953Z 11011KT 10SM BKN035 BKN080 27/19 A3006 RMK AO2 SLP178 T02720194

METAR Board
Radar Display
Forecast Discussion
For situational awareness. Not to be used for flight planning purposes.